Time,TemperatureF,DewpointF,PressureIn,WindDirection,WindDirectionDegrees,WindSpeedMPH,WindSpeedGustMPH,Humidity,HourlyPrecipIn,Conditions,Clouds,dailyrainin,SoftwareType,DateUTC
2013-06-09 00:05:00,76.6,73.4,30.07,SSW,192,2.0,3.0,90,0.00,,,0.00,Wunderground v.1.15,2013-06-09 04:05:00,
2013-06-09 00:15:00,76.6,73.4,30.07,SSW,195,4.0,5.0,90,0.00,,,0.00,Wunderground v.1.15,2013-06-09 04:15:00,
2013-06-09 00:20:00,76.6,73.4,30.07,SSW,203,4.0,5.0,90,0.00,,,0.00,Wunderground v.1.15,2013-06-09 04:20:00,
2013-06-09 00:24:00,76.6,73.4,30.07,SW,215,5.0,5.0,90,0.00,,,0.00,Wunderground v.1.15,2013-06-09 04:24:00,
2013-06-09 00:30:00,76.6,73.4,30.07,SSW,197,5.0,5.0,90,0.00,,,0.00,Wunderground v.1.15,2013-06-09 04:30:00,
2013-06-09 00:40:00,76.7,73.5,30.07,SSW,196,5.0,5.0,90,0.00,,,0.00,Wunderground v.1.15,2013-06-09 04:40:00,
2013-06-09 00:50:00,76.6,73.4,30.07,SSW,207,5.0,5.0,90,0.00,,,0.00,Wunderground v.1.15,2013-06-09 04:50:00,
2013-06-09 01:00:00,76.6,73.4,30.07,SSW,213,5.0,5.0,90,0.00,,,0.00,Wunderground v.1.15,2013-06-09 05:00:00,
2013-06-09 01:09:00,76.5,73.3,30.07,SSW,212,4.0,4.0,90,0.00,,,0.00,Wunderground v.1.15,2013-06-09 05:09:00,
2013-06-09 01:15:00,76.4,73.2,30.07,SSW,197,5.0,6.0,90,0.00,,,0.00,Wunderground v.1.15,2013-06-09 05:15:00,
2013-06-09 01:25:00,76.3,73.5,30.07,SSW,205,5.0,6.0,91,0.00,,,0.00,Wunderground v.1.15,2013-06-09 05:25:00,
2013-06-09 01:35:00,76.2,73.4,30.07,SW,219,4.0,4.0,91,0.00,,,0.00,Wunderground v.1.15,2013-06-09 05:35:00,
2013-06-09 01:45:00,76.1,73.3,30.07,SSW,199,4.0,5.0,91,0.00,,,0.00,Wunderground v.1.15,2013-06-09 05:45:00,
2013-06-09 01:55:00,76.0,73.2,30.07,SSW,207,4.0,7.0,91,0.00,,,0.00,Wunderground v.1.15,2013-06-09 05:55:00,
2013-06-09 02:04:00,75.9,73.1,30.07,SSW,205,4.0,4.0,91,0.00,,,0.00,Wunderground v.1.15,2013-06-09 06:04:00,
2013-06-09 02:10:00,75.8,73.0,30.06,SSW,197,4.0,4.0,91,0.00,,,0.00,Wunderground v.1.15,2013-06-09 06:10:00,
2013-06-09 02:15:00,75.9,73.1,30.07,SSW,211,4.0,6.0,91,0.00,,,0.00,Wunderground v.1.15,2013-06-09 06:15:00,
2013-06-09 02:24:00,75.8,73.0,30.06,South,187,4.0,5.0,91,0.00,,,0.00,Wunderground v.1.15,2013-06-09 06:24:00,
2013-06-09 02:30:00,75.8,73.0,30.06,SSW,198,3.0,5.0,91,0.00,,,0.00,Wunderground v.1.15,2013-06-09 06:30:00,
2013-06-09 02:40:00,75.8,72.7,30.06,SSW,202,3.0,3.0,90,0.00,,,0.00,Wunderground v.1.15,2013-06-09 06:40:00,
2013-06-09 02:50:00,75.6,72.5,30.06,SSW,195,2.0,3.0,90,0.00,,,0.00,Wunderground v.1.15,2013-06-09 06:50:00,
2013-06-09 03:00:00,75.6,72.5,30.06,SSW,198,2.0,4.0,90,0.00,,,0.00,Wunderground v.1.15,2013-06-09 07:00:00,
2013-06-09 03:10:00,75.4,72.3,30.06,South,188,2.0,2.0,90,0.00,,,0.00,Wunderground v.1.15,2013-06-09 07:10:00,
2013-06-09 03:20:00,75.3,72.2,30.06,South,189,2.0,2.0,90,0.00,,,0.00,Wunderground v.1.15,2013-06-09 07:20:00,
2013-06-09 03:30:00,75.2,72.4,30.06,SW,218,2.0,2.0,91,0.00,,,0.00,Wunderground v.1.15,2013-06-09 07:30:00,
2013-06-09 03:40:00,75.2,72.4,30.06,SW,217,2.0,3.0,91,0.00,,,0.00,Wunderground v.1.15,2013-06-09 07:40:00,
2013-06-09 03:50:00,75.1,72.3,30.06,SW,217,1.0,1.0,91,0.00,,,0.00,Wunderground v.1.15,2013-06-09 07:50:00,
2013-06-09 04:00:00,75.0,72.2,30.06,SW,217,0.0,0.0,91,0.00,,,0.00,Wunderground v.1.15,2013-06-09 08:00:00,
2013-06-09 04:10:00,74.9,72.4,30.06,South,183,0.0,1.0,92,0.00,,,0.00,Wunderground v.1.15,2013-06-09 08:10:00,
2013-06-09 04:20:00,74.7,72.2,30.06,South,173,1.0,1.0,92,0.00,,,0.00,Wunderground v.1.15,2013-06-09 08:20:00,
2013-06-09 04:30:00,74.4,71.9,30.06,South,169,1.0,1.0,92,0.00,,,0.00,Wunderground v.1.15,2013-06-09 08:30:00,
2013-06-09 04:40:00,74.3,72.1,30.06,South,169,0.0,1.0,93,0.00,,,0.00,Wunderground v.1.15,2013-06-09 08:40:00,
2013-06-09 04:50:00,74.4,72.2,30.06,South,169,0.0,0.0,93,0.00,,,0.00,Wunderground v.1.15,2013-06-09 08:50:00,
2013-06-09 05:00:00,74.4,72.2,30.06,South,169,0.0,1.0,93,0.00,,,0.00,Wunderground v.1.15,2013-06-09 09:00:00,
2013-06-09 05:10:00,74.4,72.2,30.06,South,169,0.0,1.0,93,0.00,,,0.00,Wunderground v.1.15,2013-06-09 09:10:00,
2013-06-09 05:20:00,74.4,72.2,30.07,South,169,2.0,2.0,93,0.00,,,0.00,Wunderground v.1.15,2013-06-09 09:20:00,
2013-06-09 05:30:00,74.4,72.2,30.07,South,169,1.0,1.0,93,0.00,,,0.00,Wunderground v.1.15,2013-06-09 09:30:00,
2013-06-09 05:40:00,74.2,72.0,30.08,South,169,0.0,0.0,93,0.00,,,0.00,Wunderground v.1.15,2013-06-09 09:40:00,
2013-06-09 05:50:00,74.4,72.6,30.08,South,169,0.0,0.0,94,0.00,,,0.00,Wunderground v.1.15,2013-06-09 09:50:00,
2013-06-09 06:00:00,74.6,72.4,30.08,South,169,0.0,0.0,93,0.00,,,0.00,Wunderground v.1.15,2013-06-09 10:00:00,
2013-06-09 06:10:00,74.6,72.8,30.08,South,178,0.0,0.0,94,0.00,,,0.00,Wunderground v.1.15,2013-06-09 10:10:00,
2013-06-09 06:20:00,74.8,73.0,30.09,South,178,0.0,0.0,94,0.00,,,0.00,Wunderground v.1.15,2013-06-09 10:20:00,
2013-06-09 06:30:00,74.9,73.1,30.09,South,178,1.0,2.0,94,0.00,,,0.00,Wunderground v.1.15,2013-06-09 10:30:00,
2013-06-09 06:35:00,74.9,73.1,30.09,South,178,2.0,2.0,94,0.00,,,0.00,Wunderground v.1.15,2013-06-09 10:35:00,
2013-06-09 06:44:00,74.9,73.1,30.09,South,178,1.0,2.0,94,0.00,,,0.00,Wunderground v.1.15,2013-06-09 10:44:00,
2013-06-09 06:50:00,75.0,73.2,30.10,South,178,1.0,1.0,94,0.00,,,0.00,Wunderground v.1.15,2013-06-09 10:50:00,
2013-06-09 06:55:00,75.1,73.3,30.10,South,178,0.0,1.0,94,0.00,,,0.00,Wunderground v.1.15,2013-06-09 10:55:00,
2013-06-09 07:04:00,75.3,73.5,30.10,South,178,1.0,2.0,94,0.00,,,0.00,Wunderground v.1.15,2013-06-09 11:04:00,
2013-06-09 07:10:00,75.5,73.7,30.10,South,178,1.0,2.0,94,0.00,,,0.00,Wunderground v.1.15,2013-06-09 11:10:00,
2013-06-09 07:20:00,75.9,74.0,30.10,South,173,2.0,2.0,94,0.00,,,0.00,Wunderground v.1.15,2013-06-09 11:20:00,
2013-06-09 07:30:00,76.1,74.2,30.10,South,173,2.0,2.0,94,0.00,,,0.00,Wunderground v.1.15,2013-06-09 11:30:00,
2013-06-09 07:40:00,76.4,74.5,30.11,South,171,1.0,1.0,94,0.00,,,0.00,Wunderground v.1.15,2013-06-09 11:40:00,
2013-06-09 07:50:00,76.9,75.0,30.11,SSE,158,2.0,2.0,94,0.00,,,0.01,Wunderground v.1.15,2013-06-09 11:50:00,
2013-06-09 08:00:00,77.2,75.3,30.11,SSE,159,1.0,1.0,94,0.00,,,0.01,Wunderground v.1.15,2013-06-09 12:00:00,
2013-06-09 08:10:00,77.6,75.7,30.11,SW,221,1.0,2.0,94,0.00,,,0.01,Wunderground v.1.15,2013-06-09 12:10:00,
2013-06-09 08:20:00,78.0,75.8,30.11,South,175,2.0,2.0,93,0.00,,,0.01,Wunderground v.1.15,2013-06-09 12:20:00,
2013-06-09 08:30:00,78.3,75.8,30.11,South,184,2.0,6.0,92,0.00,,,0.01,Wunderground v.1.15,2013-06-09 12:30:00,
2013-06-09 08:40:00,78.5,75.7,30.11,SW,215,3.0,3.0,91,0.00,,,0.01,Wunderground v.1.15,2013-06-09 12:40:00,
2013-06-09 08:50:00,78.9,75.4,30.11,SSW,192,3.0,4.0,89,0.00,,,0.01,Wunderground v.1.15,2013-06-09 12:50:00,
2013-06-09 09:00:00,79.3,75.1,30.11,SSW,211,4.0,6.0,87,0.00,,,0.01,Wunderground v.1.15,2013-06-09 13:00:00,
2013-06-09 09:09:00,79.6,75.0,30.11,SSW,206,3.0,3.0,86,0.00,,,0.01,Wunderground v.1.15,2013-06-09 13:09:00,
2013-06-09 09:15:00,79.6,75.0,30.11,South,173,2.0,3.0,86,0.00,,,0.01,Wunderground v.1.15,2013-06-09 13:15:00,
2013-06-09 09:25:00,79.9,74.3,30.11,WSW,246,2.0,2.0,83,0.00,,,0.01,Wunderground v.1.15,2013-06-09 13:25:00,
2013-06-09 09:35:00,80.2,74.6,30.12,SSW,213,3.0,3.0,83,0.00,,,0.01,Wunderground v.1.15,2013-06-09 13:35:00,
2013-06-09 09:45:00,80.2,73.8,30.12,SW,231,2.0,3.0,81,0.00,,,0.01,Wunderground v.1.15,2013-06-09 13:45:00,
2013-06-09 09:55:00,80.6,73.5,30.11,SSW,200,3.0,7.0,79,0.00,,,0.01,Wunderground v.1.15,2013-06-09 13:55:00,
2013-06-09 10:05:00,81.0,73.1,30.12,SW,220,5.0,7.0,77,0.00,,,0.01,Wunderground v.1.15,2013-06-09 14:05:00,
2013-06-09 10:15:00,81.1,73.2,30.12,SSW,205,5.0,6.0,77,0.00,,,0.01,Wunderground v.1.15,2013-06-09 14:15:00,
2013-06-09 10:25:00,81.6,74.5,30.12,West,259,3.0,5.0,79,0.00,,,0.01,Wunderground v.1.15,2013-06-09 14:25:00,
2013-06-09 10:35:00,82.1,73.4,30.12,SW,226,4.0,6.0,75,0.00,,,0.01,Wunderground v.1.15,2013-06-09 14:35:00,
2013-06-09 10:44:00,82.1,73.4,30.12,WSW,247,4.0,4.0,75,0.00,,,0.01,Wunderground v.1.15,2013-06-09 14:44:00,
2013-06-09 10:50:00,82.4,73.7,30.12,SW,229,3.0,3.0,75,0.00,,,0.01,Wunderground v.1.15,2013-06-09 14:50:00,
2013-06-09 11:00:00,82.1,73.0,30.12,SSW,205,5.0,5.0,74,0.00,,,0.01,Wunderground v.1.15,2013-06-09 15:00:00,
2013-06-09 11:05:00,82.1,73.0,30.12,SSW,204,5.0,5.0,74,0.00,,,0.01,Wunderground v.1.15,2013-06-09 15:05:00,
2013-06-09 11:15:00,82.6,73.9,30.12,SW,236,2.0,4.0,75,0.00,,,0.01,Wunderground v.1.15,2013-06-09 15:15:00,
2013-06-09 11:25:00,82.7,74.0,30.12,SW,227,2.0,3.0,75,0.00,,,0.01,Wunderground v.1.15,2013-06-09 15:25:00,
2013-06-09 11:35:00,82.9,73.8,30.12,SW,226,1.0,1.0,74,0.00,,,0.01,Wunderground v.1.15,2013-06-09 15:35:00,
2013-06-09 11:45:00,83.0,73.4,30.11,SSW,203,2.0,2.0,73,0.00,,,0.01,Wunderground v.1.15,2013-06-09 15:45:00,
2013-06-09 11:55:00,83.5,75.9,30.11,SSE,165,2.0,2.0,78,0.00,,,0.01,Wunderground v.1.15,2013-06-09 15:55:00,
2013-06-09 12:04:00,83.2,75.2,30.11,South,172,4.0,4.0,77,0.00,,,0.01,Wunderground v.1.15,2013-06-09 16:04:00,
2013-06-09 12:10:00,83.5,75.1,30.11,South,186,4.0,4.0,76,0.00,,,0.01,Wunderground v.1.15,2013-06-09 16:10:00,
2013-06-09 12:20:00,83.6,75.6,30.11,SSE,147,4.0,10.0,77,0.00,,,0.01,Wunderground v.1.15,2013-06-09 16:20:00,
2013-06-09 12:30:00,83.4,75.4,30.10,SSE,157,5.0,6.0,77,0.00,,,0.01,Wunderground v.1.15,2013-06-09 16:30:00,
2013-06-09 12:40:00,83.6,75.6,30.10,ESE,105,4.0,8.0,77,0.00,,,0.01,Wunderground v.1.15,2013-06-09 16:40:00,
2013-06-09 12:50:00,84.1,75.7,30.10,South,190,4.0,4.0,76,0.00,,,0.01,Wunderground v.1.15,2013-06-09 16:50:00,
2013-06-09 13:00:00,83.7,75.3,30.10,South,174,5.0,5.0,76,0.00,,,0.01,Wunderground v.1.15,2013-06-09 17:00:00,
2013-06-09 13:09:00,83.4,74.6,30.09,SE,146,6.0,8.0,75,0.00,,,0.01,Wunderground v.1.15,2013-06-09 17:09:00,
2013-06-09 13:15:00,83.4,75.0,30.09,SSE,150,5.0,8.0,76,0.00,,,0.01,Wunderground v.1.15,2013-06-09 17:15:00,
2013-06-09 13:25:00,83.2,73.2,30.09,SSE,161,7.0,7.0,72,0.00,,,0.01,Wunderground v.1.15,2013-06-09 17:25:00,
2013-06-09 13:35:00,83.1,74.7,30.09,SSE,164,5.0,7.0,76,0.00,,,0.01,Wunderground v.1.15,2013-06-09 17:35:00,
2013-06-09 13:45:00,82.6,75.8,30.09,SSE,165,5.0,5.0,80,0.00,,,0.01,Wunderground v.1.15,2013-06-09 17:45:00,
2013-06-09 13:55:00,81.8,75.8,30.08,SSE,154,7.0,7.0,82,0.00,,,0.01,Wunderground v.1.15,2013-06-09 17:55:00,
2013-06-09 14:05:00,81.9,75.9,30.09,SE,145,5.0,6.0,82,0.00,,,0.01,Wunderground v.1.15,2013-06-09 18:05:00,
2013-06-09 14:14:00,81.9,75.1,30.08,SSE,155,5.0,5.0,80,0.00,,,0.01,Wunderground v.1.15,2013-06-09 18:14:00,
2013-06-09 14:20:00,82.2,75.8,30.08,SSW,207,5.0,5.0,81,0.00,,,0.01,Wunderground v.1.15,2013-06-09 18:20:00,
2013-06-09 14:30:00,82.2,75.8,30.08,South,171,5.0,5.0,81,0.00,,,0.01,Wunderground v.1.15,2013-06-09 18:30:00,
2013-06-09 14:40:00,82.3,75.1,30.08,South,186,5.0,5.0,79,0.00,,,0.01,Wunderground v.1.15,2013-06-09 18:40:00,
2013-06-09 14:50:00,82.9,75.3,30.07,SSE,168,5.0,5.0,78,0.00,,,0.01,Wunderground v.1.15,2013-06-09 18:50:00,
2013-06-09 15:00:00,83.0,75.4,30.07,SE,144,7.0,12.0,78,0.00,,,0.01,Wunderground v.1.15,2013-06-09 19:00:00,
2013-06-09 15:10:00,83.2,75.2,30.07,South,171,7.0,8.0,77,0.00,,,0.01,Wunderground v.1.15,2013-06-09 19:10:00,
2013-06-09 15:19:00,82.4,74.8,30.06,SSE,153,8.0,10.0,78,0.00,,,0.01,Wunderground v.1.15,2013-06-09 19:19:00,
2013-06-09 15:25:00,82.2,75.0,30.06,SSE,157,8.0,10.0,79,0.00,,,0.01,Wunderground v.1.15,2013-06-09 19:25:00,
2013-06-09 15:35:00,82.3,75.1,30.06,SSE,155,6.0,7.0,79,0.00,,,0.01,Wunderground v.1.15,2013-06-09 19:35:00,
2013-06-09 15:45:00,82.4,74.8,30.06,SSW,194,6.0,8.0,78,0.00,,,0.01,Wunderground v.1.15,2013-06-09 19:45:00,
2013-06-09 15:55:00,82.1,75.3,30.05,SE,144,5.0,7.0,80,0.00,,,0.01,Wunderground v.1.15,2013-06-09 19:55:00,
2013-06-09 16:05:00,81.8,75.0,30.05,South,180,7.0,9.0,80,0.00,,,0.01,Wunderground v.1.15,2013-06-09 20:05:00,
2013-06-09 16:14:00,81.7,75.3,30.05,SSE,167,5.0,8.0,81,0.00,,,0.01,Wunderground v.1.15,2013-06-09 20:14:00,
2013-06-09 16:20:00,81.7,75.7,30.05,South,178,5.0,5.0,82,0.00,,,0.01,Wunderground v.1.15,2013-06-09 20:20:00,
2013-06-09 16:30:00,82.1,76.1,30.05,SSW,205,4.0,4.0,82,0.00,,,0.01,Wunderground v.1.15,2013-06-09 20:30:00,
2013-06-09 16:40:00,82.9,76.1,30.05,SE,140,7.0,7.0,80,0.00,,,0.02,Wunderground v.1.15,2013-06-09 20:40:00,
2013-06-09 16:50:00,83.3,76.1,30.05,SSE,155,6.0,9.0,79,0.00,,,0.02,Wunderground v.1.15,2013-06-09 20:50:00,
2013-06-09 17:00:00,82.5,75.7,30.06,SSE,159,6.0,6.0,80,0.00,,,0.02,Wunderground v.1.15,2013-06-09 21:00:00,
2013-06-09 17:09:00,82.1,74.9,30.06,SSE,159,5.0,5.0,79,0.00,,,0.02,Wunderground v.1.15,2013-06-09 21:09:00,
2013-06-09 17:15:00,82.1,74.6,30.06,SE,138,5.0,5.0,78,0.00,,,0.02,Wunderground v.1.15,2013-06-09 21:15:00,
2013-06-09 17:25:00,82.2,74.3,30.07,SSE,163,4.0,6.0,77,0.00,,,0.02,Wunderground v.1.15,2013-06-09 21:25:00,
2013-06-09 17:35:00,82.6,74.3,30.07,SSE,161,4.0,5.0,76,0.00,,,0.02,Wunderground v.1.15,2013-06-09 21:35:00,
2013-06-09 17:45:00,82.4,73.3,30.07,SSW,192,6.0,8.0,74,0.00,,,0.02,Wunderground v.1.15,2013-06-09 21:45:00,
2013-06-09 17:55:00,81.8,73.5,30.07,SSW,197,7.0,11.0,76,0.00,,,0.02,Wunderground v.1.15,2013-06-09 21:55:00,
2013-06-09 18:05:00,81.4,73.9,30.07,SSE,157,6.0,6.0,78,0.00,,,0.02,Wunderground v.1.15,2013-06-09 22:05:00,
2013-06-09 18:15:00,81.0,74.2,30.07,South,180,5.0,6.0,80,0.00,,,0.02,Wunderground v.1.15,2013-06-09 22:15:00,
2013-06-09 18:25:00,80.7,74.3,30.07,South,169,5.0,5.0,81,0.00,,,0.02,Wunderground v.1.15,2013-06-09 22:25:00,
2013-06-09 18:34:00,80.3,74.3,30.07,SSW,195,6.0,10.0,82,0.00,,,0.02,Wunderground v.1.15,2013-06-09 22:34:00,
2013-06-09 18:40:00,80.1,74.1,30.07,SE,141,6.0,6.0,82,0.00,,,0.02,Wunderground v.1.15,2013-06-09 22:40:00,
2013-06-09 18:50:00,79.9,74.3,30.07,South,191,5.0,5.0,83,0.00,,,0.02,Wunderground v.1.15,2013-06-09 22:50:00,
2013-06-09 19:00:00,79.6,74.3,30.07,South,189,4.0,4.0,84,0.00,,,0.02,Wunderground v.1.15,2013-06-09 23:00:00,
2013-06-09 19:10:00,79.5,74.2,30.07,South,189,4.0,4.0,84,0.00,,,0.02,Wunderground v.1.15,2013-06-09 23:10:00,
2013-06-09 19:19:00,79.4,73.4,30.07,South,181,5.0,5.0,82,0.00,,,0.02,Wunderground v.1.15,2013-06-09 23:19:00,
2013-06-09 19:25:00,79.3,73.3,30.07,South,180,4.0,5.0,82,0.00,,,0.02,Wunderground v.1.15,2013-06-09 23:25:00,
2013-06-09 19:35:00,79.2,72.9,30.07,SSW,198,4.0,6.0,81,0.00,,,0.02,Wunderground v.1.15,2013-06-09 23:35:00,
2013-06-09 19:45:00,79.0,73.0,30.07,South,188,4.0,5.0,82,0.00,,,0.02,Wunderground v.1.15,2013-06-09 23:45:00,
2013-06-09 19:55:00,78.7,73.1,30.07,South,187,4.0,4.0,83,0.00,,,0.02,Wunderground v.1.15,2013-06-09 23:55:00,
2013-06-09 20:05:00,78.5,73.3,30.07,SW,214,2.0,3.0,84,0.00,,,0.02,Wunderground v.1.15,2013-06-10 00:05:00,
2013-06-09 20:10:00,78.4,73.2,30.07,South,184,2.0,2.0,84,0.00,,,0.02,Wunderground v.1.15,2013-06-10 00:10:00,
2013-06-09 20:19:00,78.1,72.9,30.08,SE,140,3.0,5.0,84,0.00,,,0.02,Wunderground v.1.15,2013-06-10 00:19:00,
2013-06-09 20:25:00,78.1,73.2,30.08,SSE,164,3.0,5.0,85,0.00,,,0.02,Wunderground v.1.15,2013-06-10 00:25:00,
2013-06-09 20:30:00,78.0,73.1,30.08,South,186,3.0,3.0,85,0.00,,,0.02,Wunderground v.1.15,2013-06-10 00:30:00,
2013-06-09 20:40:00,77.8,73.3,30.08,South,169,3.0,4.0,86,0.00,,,0.02,Wunderground v.1.15,2013-06-10 00:40:00,
2013-06-09 20:50:00,77.8,73.3,30.08,South,180,5.0,5.0,86,0.00,,,0.02,Wunderground v.1.15,2013-06-10 00:50:00,
2013-06-09 21:00:00,77.7,73.5,30.09,SSW,198,2.0,5.0,87,0.00,,,0.02,Wunderground v.1.15,2013-06-10 01:00:00,
2013-06-09 21:09:00,77.6,73.4,30.09,SSW,194,2.0,3.0,87,0.00,,,0.02,Wunderground v.1.15,2013-06-10 01:09:00,
2013-06-09 21:15:00,77.6,73.4,30.09,SSE,156,2.0,3.0,87,0.00,,,0.02,Wunderground v.1.15,2013-06-10 01:15:00,
2013-06-09 21:25:00,77.5,73.3,30.09,South,189,2.0,2.0,87,0.00,,,0.02,Wunderground v.1.15,2013-06-10 01:25:00,
2013-06-09 21:35:00,77.3,73.1,30.09,SSE,161,2.0,5.0,87,0.00,,,0.02,Wunderground v.1.15,2013-06-10 01:35:00,
2013-06-09 21:45:00,77.1,73.3,30.09,South,169,2.0,2.0,88,0.00,,,0.02,Wunderground v.1.15,2013-06-10 01:45:00,
2013-06-09 21:55:00,77.1,73.3,30.09,South,174,3.0,3.0,88,0.00,,,0.02,Wunderground v.1.15,2013-06-10 01:55:00,
2013-06-09 22:04:00,77.1,73.3,30.09,SSW,196,2.0,4.0,88,0.00,,,0.02,Wunderground v.1.15,2013-06-10 02:04:00,
2013-06-09 22:10:00,77.2,73.0,30.09,SSW,207,3.0,4.0,87,0.00,,,0.02,Wunderground v.1.15,2013-06-10 02:10:00,
2013-06-09 22:20:00,77.2,73.0,30.09,SSE,153,3.0,3.0,87,0.00,,,0.02,Wunderground v.1.15,2013-06-10 02:20:00,
2013-06-09 22:30:00,77.3,73.1,30.10,South,187,2.0,2.0,87,0.00,,,0.02,Wunderground v.1.15,2013-06-10 02:30:00,
2013-06-09 22:40:00,77.2,73.0,30.10,SE,138,3.0,3.0,87,0.00,,,0.02,Wunderground v.1.15,2013-06-10 02:40:00,
2013-06-09 22:50:00,77.3,73.1,30.10,SSE,165,4.0,4.0,87,0.00,,,0.02,Wunderground v.1.15,2013-06-10 02:50:00,
2013-06-09 23:00:00,77.3,73.1,30.10,South,188,3.0,4.0,87,0.00,,,0.02,Wunderground v.1.15,2013-06-10 03:00:00,
2013-06-09 23:10:00,77.2,73.4,30.09,SSE,163,3.0,3.0,88,0.00,,,0.02,Wunderground v.1.15,2013-06-10 03:10:00,
2013-06-09 23:20:00,77.2,73.4,30.09,SSE,163,4.0,4.0,88,0.00,,,0.02,Wunderground v.1.15,2013-06-10 03:20:00,
2013-06-09 23:30:00,77.1,73.6,30.09,SSE,161,5.0,5.0,89,0.00,,,0.02,Wunderground v.1.15,2013-06-10 03:30:00,
2013-06-09 23:39:00,77.3,73.8,30.09,SSE,159,4.0,6.0,89,0.00,,,0.02,Wunderground v.1.15,2013-06-10 03:39:00,
2013-06-09 23:45:00,77.4,73.9,30.09,SSE,153,5.0,6.0,89,0.00,,,0.02,Wunderground v.1.15,2013-06-10 03:45:00,
2013-06-09 23:55:00,77.3,73.8,30.09,SSE,162,6.0,8.0,89,0.00,,,0.02,Wunderground v.1.15,2013-06-10 03:55:00,